createdAt,value
2019-01-18T00:00:41.319Z,54.12
2019-01-18T00:05:47.963Z,56.61
2019-01-18T00:11:07.240Z,58.31
2019-01-18T00:13:37.527Z,56.65
2019-01-18T00:16:07.779Z,60.57
2019-01-18T00:18:37.950Z,60.14
2019-01-18T00:21:08.106Z,58.28
2019-01-18T00:23:38.353Z,58.80
2019-01-18T00:26:08.619Z,58.03
2019-01-18T00:28:38.767Z,58.23
2019-01-18T00:31:08.921Z,57.20
2019-01-18T00:33:39.182Z,57.02
2019-01-18T00:36:09.340Z,56.65
2019-01-18T00:38:39.608Z,56.76
2019-01-18T00:41:09.865Z,56.38
2019-01-18T00:43:40.027Z,55.96
2019-01-18T00:46:10.204Z,56.04
2019-01-18T00:48:40.462Z,55.78
2019-01-18T00:51:10.738Z,55.95
2019-01-18T00:53:40.911Z,55.86
2019-01-18T00:56:11.076Z,55.60
2019-01-18T00:58:41.323Z,55.49
2019-01-18T01:01:11.639Z,55.98
2019-01-18T01:03:41.781Z,56.29
2019-01-18T01:06:11.942Z,56.06
2019-01-18T01:08:42.199Z,56.25
2019-01-18T01:11:12.604Z,56.01
2019-01-18T01:13:42.969Z,56.01
2019-01-18T01:16:13.211Z,56.97
2019-01-18T01:18:43.467Z,58.03
2019-01-18T01:21:13.633Z,57.97
2019-01-18T01:23:43.892Z,58.65
2019-01-18T01:26:14.183Z,57.91
2019-01-18T01:28:44.337Z,57.92
2019-01-18T01:31:14.483Z,58.61
2019-01-18T01:33:44.745Z,57.25
2019-01-18T01:36:14.998Z,55.49
2019-01-18T01:38:45.174Z,55.05
2019-01-18T01:41:15.333Z,55.62
2019-01-18T01:43:45.599Z,56.19
2019-01-18T01:46:15.861Z,56.77
2019-01-18T01:48:46.037Z,56.60
2019-01-18T01:51:16.305Z,58.01
2019-01-18T01:53:46.566Z,59.48
2019-01-18T01:56:16.697Z,58.04
2019-01-18T01:58:46.941Z,57.04
2019-01-18T02:01:17.210Z,57.00
2019-01-18T02:03:47.362Z,57.39
2019-01-18T02:06:17.544Z,59.83
2019-01-18T02:08:47.779Z,57.72
2019-01-18T02:11:18.118Z,57.15
2019-01-18T02:13:48.259Z,56.94
2019-01-18T02:16:18.409Z,56.59
2019-01-18T02:18:48.680Z,59.91
2019-01-18T02:21:18.939Z,58.47
2019-01-18T02:23:49.092Z,57.34
2019-01-18T02:26:19.279Z,56.93
2019-01-18T02:28:49.537Z,57.70
2019-01-18T02:31:19.797Z,56.94
2019-01-18T02:33:49.953Z,56.45
2019-01-18T02:36:20.124Z,56.44
2019-01-18T02:38:50.371Z,56.29
2019-01-18T02:41:20.625Z,56.31
2019-01-18T02:43:50.883Z,55.48
2019-01-18T02:46:21.027Z,56.36
2019-01-18T02:48:51.289Z,55.18
2019-01-18T02:51:21.554Z,56.17
2019-01-18T02:53:51.741Z,55.84
2019-01-18T02:56:21.886Z,56.00
2019-01-18T02:58:52.140Z,55.80
2019-01-18T03:01:22.387Z,55.15
2019-01-18T03:03:52.539Z,55.78
2019-01-18T03:06:22.698Z,55.89
2019-01-18T03:08:52.953Z,55.63
2019-01-18T03:13:58.924Z,56.18
2019-01-18T03:16:29.295Z,55.90
2019-01-18T03:18:59.456Z,56.63
2019-01-18T03:21:29.609Z,55.84
2019-01-18T03:23:59.919Z,55.88
2019-01-18T03:26:30.157Z,54.66
2019-01-18T03:29:00.312Z,53.98
2019-01-18T03:31:30.476Z,54.04
2019-01-18T03:34:00.750Z,53.34
2019-01-18T03:36:31.007Z,53.50
2019-01-18T03:39:01.165Z,53.94
2019-01-18T03:41:31.336Z,55.64
2019-01-18T03:44:01.610Z,56.92
2019-01-18T03:46:31.922Z,56.37
2019-01-18T03:49:02.084Z,55.25
2019-01-18T03:51:32.255Z,56.55
2019-01-18T03:54:02.554Z,56.38
2019-01-18T03:56:32.703Z,56.24
2019-01-18T03:59:02.973Z,56.43
2019-01-18T04:01:33.233Z,56.26
2019-01-18T04:04:03.486Z,56.36
2019-01-18T04:06:33.669Z,57.50
2019-01-18T04:11:59.556Z,56.44
2019-01-18T04:14:29.813Z,56.44
2019-01-18T04:16:59.966Z,56.15
2019-01-18T04:19:30.137Z,55.76
2019-01-18T04:24:56.077Z,56.38
2019-01-18T04:30:02.409Z,57.81
2019-01-18T04:32:32.591Z,57.79
2019-01-18T04:35:02.973Z,59.73
2019-01-18T04:37:33.240Z,58.63
2019-01-18T04:40:03.439Z,57.94
2019-01-18T04:42:33.688Z,57.28
2019-01-18T04:45:03.857Z,58.55
2019-01-18T04:47:34.025Z,58.39
2019-01-18T04:50:04.383Z,58.29
2019-01-18T04:52:34.638Z,56.75
2019-01-18T04:58:04.319Z,56.17
2019-01-18T05:00:40.486Z,56.45
2019-01-18T05:06:04.927Z,58.89
2019-01-18T05:08:35.192Z,59.80
2019-01-18T05:14:06.748Z,56.04
2019-01-18T05:16:37.316Z,56.04
2019-01-18T05:19:07.567Z,55.28
2019-01-18T05:21:37.754Z,55.11
2019-01-18T05:24:07.943Z,55.11
2019-01-18T05:26:38.149Z,53.85
2019-01-18T05:29:08.377Z,53.47
2019-01-18T05:31:38.606Z,53.80
2019-01-18T05:34:08.890Z,54.73
2019-01-18T05:36:39.106Z,54.96
2019-01-18T05:39:09.396Z,55.46
2019-01-18T05:41:39.620Z,55.07
2019-01-18T05:44:09.888Z,55.45
2019-01-18T05:46:40.108Z,56.84
2019-01-18T05:49:10.266Z,58.66
2019-01-18T05:51:40.482Z,58.66
2019-01-18T05:54:10.743Z,59.36
2019-01-18T05:56:40.965Z,60.68
2019-01-18T05:59:11.138Z,61.89
2019-01-18T06:01:41.344Z,58.97
2019-01-18T06:04:11.597Z,58.97
2019-01-18T06:12:11.206Z,56.40
2019-01-18T06:23:36.208Z,55.46
2019-01-18T06:26:06.466Z,56.20
2019-01-18T06:28:36.716Z,55.08
2019-01-18T06:31:06.966Z,54.51
2019-01-18T06:33:37.118Z,55.15
2019-01-18T06:36:07.335Z,54.39
2019-01-18T06:38:38.573Z,53.87
2019-01-18T06:41:28.580Z,53.74
2019-01-18T06:43:58.900Z,54.29
2019-01-18T06:46:29.125Z,55.30
2019-01-18T06:48:59.489Z,56.55
2019-01-18T06:51:29.812Z,53.15
2019-01-18T06:53:59.969Z,52.38
2019-01-18T06:59:19.517Z,48.65
2019-01-18T07:01:49.843Z,48.26
2019-01-18T07:04:20.352Z,48.00
2019-01-18T07:06:50.624Z,45.54
2019-01-18T07:09:20.799Z,44.63
2019-01-18T07:11:50.956Z,44.41
2019-01-18T07:14:21.219Z,43.32
2019-01-18T07:16:51.486Z,45.48
2019-01-18T07:19:21.642Z,44.75
2019-01-18T07:21:51.786Z,43.31
2019-01-18T07:24:22.036Z,42.52
2019-01-18T07:26:52.303Z,40.84
2019-01-18T07:29:22.492Z,40.44
2019-01-18T07:31:52.644Z,40.15
2019-01-18T07:34:22.885Z,38.88
2019-01-18T07:36:53.134Z,39.58
2019-01-18T07:39:23.289Z,39.41
2019-01-18T07:41:53.539Z,40.89
2019-01-18T07:44:23.726Z,39.47
2019-01-18T07:46:53.977Z,38.71
2019-01-18T07:49:24.264Z,39.13
2019-01-18T07:51:54.569Z,38.85
2019-01-18T07:54:24.767Z,37.99
2019-01-18T07:56:54.966Z,38.13
2019-01-18T08:02:01.291Z,36.76
2019-01-18T08:04:31.475Z,37.13
2019-01-18T08:07:01.645Z,35.61
2019-01-18T08:09:31.909Z,35.26
2019-01-18T08:12:02.177Z,34.39
2019-01-18T08:14:32.376Z,34.06
2019-01-18T08:17:02.572Z,32.16
2019-01-18T08:19:32.882Z,31.96
2019-01-18T08:22:03.172Z,31.25
2019-01-18T08:24:33.393Z,30.97
2019-01-18T08:27:03.611Z,31.53
2019-01-18T08:29:33.879Z,32.01
2019-01-18T08:32:04.131Z,32.10
2019-01-18T08:34:34.315Z,31.44
2019-01-18T08:37:04.516Z,30.51
2019-01-18T08:39:34.783Z,29.33
2019-01-18T08:42:05.083Z,30.03
2019-01-18T08:44:35.297Z,29.88
2019-01-18T08:47:05.515Z,30.46
2019-01-18T08:49:35.807Z,31.08
2019-01-18T08:52:06.179Z,31.55
2019-01-18T08:54:36.363Z,32.02
2019-01-18T08:57:13.497Z,33.32
2019-01-18T08:59:43.797Z,33.73
2019-01-18T09:02:13.953Z,33.70
2019-01-18T09:04:44.206Z,33.97
2019-01-18T09:07:14.471Z,33.49
2019-01-18T09:09:44.637Z,32.24
2019-01-18T09:12:14.806Z,32.32
2019-01-18T09:23:31.405Z,32.72
2019-01-18T09:26:01.802Z,32.96
2019-01-18T09:28:50.881Z,33.71
2019-01-18T09:34:43.898Z,35.52
2019-01-18T09:43:59.511Z,34.66
2019-01-18T09:52:58.403Z,35.45
2019-01-18T09:55:47.608Z,35.94
2019-01-18T09:58:56.799Z,35.98
2019-01-18T10:05:01.178Z,35.61
2019-01-18T10:07:46.460Z,35.18
2019-01-18T10:10:37.988Z,36.13
2019-01-18T10:16:36.259Z,35.80
2019-01-18T10:24:30.495Z,37.40
2019-01-18T10:27:00.731Z,38.44
2019-01-18T10:29:30.900Z,36.39
2019-01-18T10:32:01.133Z,34.91
2019-01-18T10:34:31.385Z,31.75
2019-01-18T10:37:01.591Z,33.11
2019-01-18T10:39:31.780Z,32.83
2019-01-18T10:42:02.016Z,33.53
2019-01-18T10:44:32.271Z,32.48
2019-01-18T10:47:02.509Z,32.83
2019-01-18T10:49:32.875Z,32.01
2019-01-18T10:52:03.088Z,31.82
2019-01-18T10:54:33.246Z,31.04
2019-01-18T10:57:03.552Z,31.10
2019-01-18T10:59:33.843Z,32.70
2019-01-18T11:02:07.287Z,32.09
2019-01-18T11:04:36.167Z,31.66
2019-01-18T11:07:06.522Z,32.22
2019-01-18T11:09:36.785Z,31.65
2019-01-18T11:12:07.014Z,30.96
2019-01-18T11:14:37.277Z,30.83
2019-01-18T11:17:07.500Z,31.73
2019-01-18T11:19:37.798Z,31.10
2019-01-18T11:22:08.052Z,31.46
2019-01-18T11:24:38.268Z,30.78
2019-01-18T11:27:08.500Z,29.93
2019-01-18T11:29:38.857Z,30.37
2019-01-18T11:32:13.708Z,30.19
2019-01-18T11:34:41.172Z,29.63
2019-01-18T11:37:11.514Z,29.70
2019-01-18T11:39:41.791Z,31.13
2019-01-18T11:42:12.817Z,31.62
2019-01-18T11:47:20.299Z,30.87
2019-01-18T11:49:50.754Z,32.45
2019-01-18T11:52:21.037Z,31.29
2019-01-18T11:54:51.206Z,30.98
2019-01-18T11:57:21.425Z,29.42
2019-01-18T11:59:51.726Z,30.52
2019-01-18T12:02:22.357Z,30.16
2019-01-18T12:04:54.038Z,30.93
2019-01-18T12:07:24.526Z,31.46
2019-01-18T12:09:54.708Z,30.24
2019-01-18T12:12:25.473Z,29.37
2019-01-18T12:14:56.923Z,31.02
2019-01-18T12:17:27.337Z,30.28
2019-01-18T12:19:57.536Z,30.43
2019-01-18T12:22:27.755Z,30.22
2019-01-18T12:24:58.032Z,29.94
2019-01-18T12:27:28.301Z,28.49
2019-01-18T12:29:58.492Z,28.61
2019-01-18T12:32:28.958Z,29.82
2019-01-18T12:35:00.832Z,31.37
2019-01-18T12:37:31.359Z,30.75
2019-01-18T12:40:01.574Z,30.68
2019-01-18T12:42:31.776Z,30.57
2019-01-18T12:45:02.042Z,30.34
2019-01-18T12:47:32.250Z,30.22
2019-01-18T12:50:02.528Z,30.42
2019-01-18T12:52:32.790Z,31.66
2019-01-18T12:55:02.983Z,31.43
2019-01-18T12:57:33.179Z,32.78
2019-01-18T13:00:03.532Z,32.60
2019-01-18T13:02:35.414Z,33.23
2019-01-18T13:08:01.637Z,31.20
2019-01-18T13:10:32.045Z,32.17
2019-01-18T13:13:02.358Z,32.77
2019-01-18T13:16:02.473Z,35.62
2019-01-18T13:18:33.562Z,37.57
2019-01-18T13:21:04.001Z,37.87
2019-01-18T13:23:34.266Z,36.58
2019-01-18T13:26:24.514Z,36.78
2019-01-18T13:28:54.986Z,37.96
2019-01-18T13:31:25.323Z,39.01
2019-01-18T13:33:55.642Z,39.43
2019-01-18T13:36:25.919Z,39.62
2019-01-18T13:38:56.200Z,39.98
2019-01-18T13:41:26.471Z,37.19
2019-01-18T13:43:56.644Z,35.58
2019-01-18T13:46:26.927Z,36.51
2019-01-18T13:48:57.206Z,37.82
2019-01-18T13:51:27.412Z,38.19
2019-01-18T13:53:57.592Z,37.02
2019-01-18T13:56:27.886Z,37.86
2019-01-18T13:58:58.191Z,38.19
2019-01-18T14:01:28.382Z,37.48
2019-01-18T14:03:58.573Z,38.32
2019-01-18T14:06:28.866Z,37.73
2019-01-18T14:08:59.209Z,38.25
2019-01-18T14:11:29.427Z,37.95
2019-01-18T14:13:59.630Z,38.97
2019-01-18T14:16:29.927Z,39.04
2019-01-18T14:19:00.215Z,39.77
2019-01-18T14:21:30.446Z,39.55
2019-01-18T14:24:00.661Z,39.73
2019-01-18T14:26:30.992Z,39.83
2019-01-18T14:31:37.774Z,39.98
2019-01-18T14:34:07.995Z,41.92
2019-01-18T14:36:38.391Z,41.32
2019-01-18T14:39:29.949Z,42.69
2019-01-18T14:42:00.294Z,44.40
2019-01-18T14:44:30.500Z,47.31
2019-01-18T14:47:00.939Z,48.23
2019-01-18T14:49:32.535Z,46.84
2019-01-18T14:52:03.347Z,46.28
2019-01-18T14:54:33.727Z,44.66
2019-01-18T14:57:03.973Z,46.42
2019-01-18T14:59:34.189Z,46.39
2019-01-18T15:02:04.509Z,46.74
2019-01-18T15:04:34.785Z,48.66
2019-01-18T15:07:04.963Z,48.44
2019-01-18T15:09:35.131Z,47.19
2019-01-18T15:12:05.799Z,46.29
2019-01-18T15:14:36.095Z,48.05
2019-01-18T15:17:06.333Z,48.38
2019-01-18T15:19:36.555Z,47.32
2019-01-18T15:22:06.832Z,46.22
2019-01-18T15:24:37.111Z,46.04
2019-01-18T15:27:07.299Z,45.94
2019-01-18T15:29:37.586Z,45.37
2019-01-18T15:32:07.767Z,47.87
2019-01-18T15:34:38.046Z,48.15
2019-01-18T15:37:08.355Z,49.46
2019-01-18T15:39:38.633Z,48.63
2019-01-18T15:47:54.214Z,49.07
2019-01-18T15:50:27.213Z,49.27
2019-01-18T15:52:57.482Z,49.28
2019-01-18T15:55:27.776Z,49.38
2019-01-18T15:57:58.219Z,49.57
2019-01-18T16:00:30.768Z,49.19
2019-01-18T16:03:01.255Z,49.86
2019-01-18T16:05:31.461Z,50.67
2019-01-18T16:08:01.642Z,52.78
2019-01-18T16:10:31.906Z,53.41
2019-01-18T16:13:02.244Z,54.10
2019-01-18T16:15:36.393Z,53.57
2019-01-18T16:18:10.399Z,54.52
2019-01-18T16:20:40.590Z,54.02
2019-01-18T16:23:10.773Z,54.42
2019-01-18T16:25:41.048Z,53.38
2019-01-18T16:28:11.302Z,53.08
2019-01-18T16:30:41.522Z,53.00
2019-01-18T16:33:11.736Z,52.38
2019-01-18T16:35:41.994Z,51.88
2019-01-18T16:38:13.200Z,51.91
2019-01-18T16:40:43.389Z,51.44
2019-01-18T16:43:52.094Z,51.37
2019-01-18T16:46:22.465Z,51.02
2019-01-18T16:48:52.782Z,51.88
2019-01-18T16:51:22.960Z,50.72
2019-01-18T16:53:53.279Z,52.43
2019-01-18T16:56:23.460Z,51.34
2019-01-18T16:58:53.706Z,51.59
2019-01-18T17:01:23.979Z,53.02
2019-01-18T17:03:54.356Z,52.52
2019-01-18T17:06:24.531Z,51.91
2019-01-18T17:08:54.696Z,54.73
2019-01-18T17:11:24.961Z,54.95
2019-01-18T17:13:55.242Z,53.82
2019-01-18T17:16:25.429Z,52.70
2019-01-18T17:18:55.593Z,52.37
2019-01-18T17:21:25.916Z,55.32
2019-01-18T17:23:56.183Z,54.12
2019-01-18T17:26:26.343Z,53.17
2019-01-18T17:28:56.617Z,52.87
2019-01-18T17:31:26.907Z,53.21
2019-01-18T17:33:57.110Z,52.81
2019-01-18T17:39:44.875Z,52.99
2019-01-18T17:42:52.687Z,53.25
2019-01-18T17:46:00.509Z,53.04
2019-01-18T17:48:52.794Z,54.48
2019-01-18T18:00:50.319Z,55.40
2019-01-18T18:10:09.253Z,55.84
2019-01-18T18:16:03.461Z,57.73
2019-01-18T18:19:01.057Z,55.18
2019-01-18T18:21:59.133Z,57.38
2019-01-18T18:24:51.435Z,56.92
2019-01-18T18:27:59.206Z,56.35
2019-01-18T18:30:52.167Z,56.64
2019-01-18T18:37:03.222Z,56.59
2019-01-18T18:42:50.172Z,54.69
2019-01-18T18:45:58.127Z,55.55
2019-01-18T18:51:51.013Z,56.85
2019-01-18T18:54:34.835Z,55.71
2019-01-18T18:57:36.772Z,55.62
2019-01-18T19:06:47.752Z,57.13
2019-01-18T19:09:40.267Z,57.24
2019-01-18T19:12:48.078Z,56.77
2019-01-18T19:21:42.992Z,55.67
2019-01-18T19:24:50.834Z,55.63
2019-01-18T19:30:54.328Z,54.91
2019-01-18T19:43:00.448Z,58.34
2019-01-18T19:46:08.150Z,59.23
2019-01-18T19:57:39.985Z,56.28
2019-01-18T20:03:58.226Z,57.93
2019-01-18T20:09:46.500Z,56.44
2019-01-18T20:15:53.986Z,56.39
2019-01-18T20:21:37.295Z,56.43
2019-01-18T20:27:43.061Z,56.06
2019-01-18T20:33:52.456Z,55.54
2019-01-18T20:46:26.770Z,56.56
2019-01-18T20:52:23.527Z,56.59
2019-01-18T20:55:31.640Z,55.75
2019-01-18T20:58:27.944Z,56.93
2019-01-18T21:10:27.116Z,56.67
2019-01-18T21:16:16.657Z,57.99
2019-01-18T21:22:05.452Z,58.20
2019-01-18T21:25:13.301Z,59.74
2019-01-18T21:31:06.567Z,61.28
2019-01-18T21:37:24.029Z,60.53
2019-01-18T21:43:53.297Z,59.01
2019-01-18T21:46:42.135Z,60.41
2019-01-18T21:49:49.841Z,59.60
2019-01-18T21:55:58.986Z,58.12
2019-01-18T22:01:45.186Z,58.93
2019-01-18T22:04:40.627Z,59.12
2019-01-18T22:07:47.994Z,58.46
2019-01-18T22:10:55.792Z,58.07
2019-01-18T22:14:03.505Z,57.78
2019-01-18T22:26:36.133Z,57.22
2019-01-18T22:32:46.019Z,56.87
2019-01-18T22:35:28.518Z,57.54
2019-01-18T22:41:36.153Z,58.73
2019-01-18T22:44:44.049Z,58.51
2019-01-18T22:51:14.128Z,58.87
2019-01-18T22:57:06.758Z,57.13
2019-01-18T23:02:55.605Z,57.06
2019-01-18T23:11:43.912Z,57.47
2019-01-18T23:17:31.733Z,58.81
2019-01-18T23:26:41.538Z,57.15
2019-01-18T23:36:01.595Z,60.10
2019-01-18T23:39:09.364Z,59.95
2019-01-18T23:44:52.283Z,57.90
2019-01-18T23:48:00.003Z,57.20
2019-01-18T23:56:39.208Z,56.37
